sensor_id;sensor_type;location;lat;lon;timestamp;P1;durP1;ratioP1;P2;durP2;ratioP2
13475;SDS011;6810;63.824;20.288;2024-02-14T00:00:17;2.00;;;0.60;;
13475;SDS011;6810;63.824;20.288;2024-02-14T00:03:05;2.53;;;0.80;;
13475;SDS011;6810;63.824;20.288;2024-02-14T00:05:52;1.83;;;0.80;;
13475;SDS011;6810;63.824;20.288;2024-02-14T00:08:40;1.37;;;0.87;;
13475;SDS011;6810;63.824;20.288;2024-02-14T00:11:27;0.70;;;0.50;;
13475;SDS011;6810;63.824;20.288;2024-02-14T00:14:14;0.90;;;0.60;;
13475;SDS011;6810;63.824;20.288;2024-02-14T00:17:01;2.60;;;1.10;;
13475;SDS011;6810;63.824;20.288;2024-02-14T00:19:48;1.50;;;0.83;;
13475;SDS011;6810;63.824;20.288;2024-02-14T00:22:47;1.13;;;0.60;;
13475;SDS011;6810;63.824;20.288;2024-02-14T00:25:34;1.17;;;0.50;;
13475;SDS011;6810;63.824;20.288;2024-02-14T00:28:21;0.80;;;0.50;;
13475;SDS011;6810;63.824;20.288;2024-02-14T00:31:08;0.87;;;0.67;;
13475;SDS011;6810;63.824;20.288;2024-02-14T00:34:09;0.77;;;0.60;;
13475;SDS011;6810;63.824;20.288;2024-02-14T00:36:57;2.00;;;0.80;;
13475;SDS011;6810;63.824;20.288;2024-02-14T00:39:44;1.20;;;0.90;;
13475;SDS011;6810;63.824;20.288;2024-02-14T00:42:32;1.73;;;1.20;;
13475;SDS011;6810;63.824;20.288;2024-02-14T00:45:19;0.97;;;0.63;;
13475;SDS011;6810;63.824;20.288;2024-02-14T00:48:06;1.80;;;0.87;;
13475;SDS011;6810;63.824;20.288;2024-02-14T00:50:53;1.57;;;0.87;;
13475;SDS011;6810;63.824;20.288;2024-02-14T00:53:40;1.30;;;0.70;;
13475;SDS011;6810;63.824;20.288;2024-02-14T00:56:27;2.00;;;1.10;;
13475;SDS011;6810;63.824;20.288;2024-02-14T00:59:14;1.23;;;0.70;;
13475;SDS011;6810;63.824;20.288;2024-02-14T01:02:01;1.20;;;0.60;;
13475;SDS011;6810;63.824;20.288;2024-02-14T01:04:48;1.70;;;0.60;;
13475;SDS011;6810;63.824;20.288;2024-02-14T01:07:35;0.80;;;0.50;;
13475;SDS011;6810;63.824;20.288;2024-02-14T01:10:22;0.67;;;0.53;;
13475;SDS011;6810;63.824;20.288;2024-02-14T01:13:09;1.13;;;0.67;;
13475;SDS011;6810;63.824;20.288;2024-02-14T01:15:56;2.20;;;1.03;;
13475;SDS011;6810;63.824;20.288;2024-02-14T01:18:43;0.73;;;0.70;;
13475;SDS011;6810;63.824;20.288;2024-02-14T01:21:30;2.07;;;0.70;;
13475;SDS011;6810;63.824;20.288;2024-02-14T01:24:17;1.33;;;0.87;;
13475;SDS011;6810;63.824;20.288;2024-02-14T01:27:04;2.87;;;1.00;;
13475;SDS011;6810;63.824;20.288;2024-02-14T01:29:51;2.17;;;0.70;;
13475;SDS011;6810;63.824;20.288;2024-02-14T01:32:38;1.00;;;0.63;;
13475;SDS011;6810;63.824;20.288;2024-02-14T01:35:25;1.77;;;0.60;;
13475;SDS011;6810;63.824;20.288;2024-02-14T01:38:12;1.87;;;0.80;;
13475;SDS011;6810;63.824;20.288;2024-02-14T01:40:58;1.00;;;0.90;;
13475;SDS011;6810;63.824;20.288;2024-02-14T01:43:45;1.00;;;0.60;;
13475;SDS011;6810;63.824;20.288;2024-02-14T01:46:32;1.17;;;0.70;;
13475;SDS011;6810;63.824;20.288;2024-02-14T01:49:19;1.93;;;1.00;;
13475;SDS011;6810;63.824;20.288;2024-02-14T01:52:08;1.13;;;0.70;;
13475;SDS011;6810;63.824;20.288;2024-02-14T01:54:55;1.03;;;0.60;;
13475;SDS011;6810;63.824;20.288;2024-02-14T01:57:42;0.70;;;0.70;;
13475;SDS011;6810;63.824;20.288;2024-02-14T02:00:29;1.10;;;0.60;;
13475;SDS011;6810;63.824;20.288;2024-02-14T02:03:17;1.60;;;0.60;;
13475;SDS011;6810;63.824;20.288;2024-02-14T02:06:07;1.87;;;0.63;;
13475;SDS011;6810;63.824;20.288;2024-02-14T02:08:54;1.93;;;1.03;;
13475;SDS011;6810;63.824;20.288;2024-02-14T02:11:50;2.00;;;0.80;;
13475;SDS011;6810;63.824;20.288;2024-02-14T02:14:58;0.90;;;0.70;;
13475;SDS011;6810;63.824;20.288;2024-02-14T02:18:05;1.73;;;0.80;;
13475;SDS011;6810;63.824;20.288;2024-02-14T02:21:12;1.60;;;0.83;;
13475;SDS011;6810;63.824;20.288;2024-02-14T02:23:59;1.10;;;0.77;;
13475;SDS011;6810;63.824;20.288;2024-02-14T02:26:46;1.80;;;1.00;;
13475;SDS011;6810;63.824;20.288;2024-02-14T02:29:53;1.50;;;0.70;;
13475;SDS011;6810;63.824;20.288;2024-02-14T02:32:41;1.10;;;0.60;;
13475;SDS011;6810;63.824;20.288;2024-02-14T02:35:29;1.23;;;0.80;;
13475;SDS011;6810;63.824;20.288;2024-02-14T02:38:36;1.83;;;0.53;;
13475;SDS011;6810;63.824;20.288;2024-02-14T02:41:43;1.47;;;0.70;;
13475;SDS011;6810;63.824;20.288;2024-02-14T02:44:56;1.03;;;0.67;;
13475;SDS011;6810;63.824;20.288;2024-02-14T02:48:03;0.73;;;0.50;;
13475;SDS011;6810;63.824;20.288;2024-02-14T02:50:56;0.87;;;0.60;;
13475;SDS011;6810;63.824;20.288;2024-02-14T02:54:09;1.97;;;1.13;;
13475;SDS011;6810;63.824;20.288;2024-02-14T02:57:18;0.87;;;0.67;;
13475;SDS011;6810;63.824;20.288;2024-02-14T03:00:06;1.63;;;0.80;;
13475;SDS011;6810;63.824;20.288;2024-02-14T03:03:11;2.53;;;0.73;;
13475;SDS011;6810;63.824;20.288;2024-02-14T03:06:17;1.13;;;0.87;;
13475;SDS011;6810;63.824;20.288;2024-02-14T03:09:19;2.43;;;1.00;;
13475;SDS011;6810;63.824;20.288;2024-02-14T03:12:26;1.03;;;0.70;;
13475;SDS011;6810;63.824;20.288;2024-02-14T03:15:33;2.37;;;1.03;;
13475;SDS011;6810;63.824;20.288;2024-02-14T03:18:20;0.80;;;0.73;;
13475;SDS011;6810;63.824;20.288;2024-02-14T03:21:07;1.20;;;0.80;;
13475;SDS011;6810;63.824;20.288;2024-02-14T03:23:54;1.70;;;1.10;;
13475;SDS011;6810;63.824;20.288;2024-02-14T03:26:41;1.63;;;0.80;;
13475;SDS011;6810;63.824;20.288;2024-02-14T03:29:27;0.40;;;0.40;;
13475;SDS011;6810;63.824;20.288;2024-02-14T03:32:14;0.97;;;0.73;;
13475;SDS011;6810;63.824;20.288;2024-02-14T03:35:01;0.90;;;0.80;;
13475;SDS011;6810;63.824;20.288;2024-02-14T03:37:48;2.03;;;0.77;;
13475;SDS011;6810;63.824;20.288;2024-02-14T03:40:36;1.13;;;1.00;;
13475;SDS011;6810;63.824;20.288;2024-02-14T03:43:22;1.00;;;0.80;;
13475;SDS011;6810;63.824;20.288;2024-02-14T03:46:09;1.60;;;0.90;;
13475;SDS011;6810;63.824;20.288;2024-02-14T03:48:56;1.83;;;0.70;;
13475;SDS011;6810;63.824;20.288;2024-02-14T03:51:43;1.77;;;0.67;;
13475;SDS011;6810;63.824;20.288;2024-02-14T03:54:30;1.70;;;0.80;;
13475;SDS011;6810;63.824;20.288;2024-02-14T03:57:17;1.30;;;0.90;;
13475;SDS011;6810;63.824;20.288;2024-02-14T04:00:04;1.63;;;0.80;;
13475;SDS011;6810;63.824;20.288;2024-02-14T04:02:52;1.00;;;0.90;;
13475;SDS011;6810;63.824;20.288;2024-02-14T04:05:39;2.57;;;0.80;;
13475;SDS011;6810;63.824;20.288;2024-02-14T04:08:26;2.83;;;0.73;;
13475;SDS011;6810;63.824;20.288;2024-02-14T04:11:13;1.53;;;1.00;;
13475;SDS011;6810;63.824;20.288;2024-02-14T04:14:00;1.07;;;0.60;;
13475;SDS011;6810;63.824;20.288;2024-02-14T04:16:47;0.93;;;0.70;;
13475;SDS011;6810;63.824;20.288;2024-02-14T04:19:34;1.40;;;0.73;;
13475;SDS011;6810;63.824;20.288;2024-02-14T04:22:22;1.53;;;0.77;;
13475;SDS011;6810;63.824;20.288;2024-02-14T04:25:08;1.10;;;0.80;;
13475;SDS011;6810;63.824;20.288;2024-02-14T04:27:55;1.33;;;0.70;;
13475;SDS011;6810;63.824;20.288;2024-02-14T04:30:42;0.83;;;0.67;;
13475;SDS011;6810;63.824;20.288;2024-02-14T04:33:36;0.93;;;0.70;;
13475;SDS011;6810;63.824;20.288;2024-02-14T04:36:23;1.10;;;0.50;;
13475;SDS011;6810;63.824;20.288;2024-02-14T04:39:10;1.00;;;0.83;;
13475;SDS011;6810;63.824;20.288;2024-02-14T04:41:57;1.27;;;0.60;;
13475;SDS011;6810;63.824;20.288;2024-02-14T04:44:44;1.87;;;0.90;;
13475;SDS011;6810;63.824;20.288;2024-02-14T04:47:33;2.27;;;0.87;;
13475;SDS011;6810;63.824;20.288;2024-02-14T04:50:20;2.10;;;1.00;;
13475;SDS011;6810;63.824;20.288;2024-02-14T04:53:07;1.93;;;0.83;;
13475;SDS011;6810;63.824;20.288;2024-02-14T04:55:54;2.80;;;0.87;;
13475;SDS011;6810;63.824;20.288;2024-02-14T04:58:41;1.70;;;0.70;;
13475;SDS011;6810;63.824;20.288;2024-02-14T05:01:27;2.30;;;0.90;;
13475;SDS011;6810;63.824;20.288;2024-02-14T05:04:14;3.17;;;1.03;;
13475;SDS011;6810;63.824;20.288;2024-02-14T05:07:01;1.33;;;0.93;;
13475;SDS011;6810;63.824;20.288;2024-02-14T05:09:48;3.73;;;1.00;;
13475;SDS011;6810;63.824;20.288;2024-02-14T05:12:35;1.37;;;0.93;;
13475;SDS011;6810;63.824;20.288;2024-02-14T05:15:22;1.73;;;0.70;;
13475;SDS011;6810;63.824;20.288;2024-02-14T05:18:09;1.73;;;1.10;;
13475;SDS011;6810;63.824;20.288;2024-02-14T05:20:56;2.60;;;1.00;;
13475;SDS011;6810;63.824;20.288;2024-02-14T05:23:43;1.37;;;0.70;;
13475;SDS011;6810;63.824;20.288;2024-02-14T05:26:30;2.60;;;1.30;;
13475;SDS011;6810;63.824;20.288;2024-02-14T05:29:17;1.23;;;1.13;;
13475;SDS011;6810;63.824;20.288;2024-02-14T05:32:04;1.53;;;0.93;;
13475;SDS011;6810;63.824;20.288;2024-02-14T05:34:51;1.27;;;0.80;;
13475;SDS011;6810;63.824;20.288;2024-02-14T05:37:38;2.57;;;1.20;;
13475;SDS011;6810;63.824;20.288;2024-02-14T05:40:25;3.00;;;0.90;;
13475;SDS011;6810;63.824;20.288;2024-02-14T05:43:12;1.20;;;1.03;;
13475;SDS011;6810;63.824;20.288;2024-02-14T05:45:59;2.17;;;0.93;;
13475;SDS011;6810;63.824;20.288;2024-02-14T05:48:46;1.67;;;1.10;;
13475;SDS011;6810;63.824;20.288;2024-02-14T05:51:33;2.27;;;0.97;;
13475;SDS011;6810;63.824;20.288;2024-02-14T05:54:20;1.83;;;0.83;;
13475;SDS011;6810;63.824;20.288;2024-02-14T05:57:07;1.20;;;1.00;;
13475;SDS011;6810;63.824;20.288;2024-02-14T05:59:54;2.07;;;1.10;;
13475;SDS011;6810;63.824;20.288;2024-02-14T06:02:41;1.70;;;1.03;;
13475;SDS011;6810;63.824;20.288;2024-02-14T06:05:28;2.93;;;1.00;;
13475;SDS011;6810;63.824;20.288;2024-02-14T06:08:15;3.37;;;1.13;;
13475;SDS011;6810;63.824;20.288;2024-02-14T06:11:02;1.90;;;0.93;;
13475;SDS011;6810;63.824;20.288;2024-02-14T06:13:48;1.87;;;0.83;;
13475;SDS011;6810;63.824;20.288;2024-02-14T06:16:35;2.77;;;0.90;;
13475;SDS011;6810;63.824;20.288;2024-02-14T06:19:22;2.50;;;1.17;;
13475;SDS011;6810;63.824;20.288;2024-02-14T06:22:09;2.07;;;1.13;;
13475;SDS011;6810;63.824;20.288;2024-02-14T06:24:57;2.17;;;1.07;;
13475;SDS011;6810;63.824;20.288;2024-02-14T06:27:54;1.50;;;0.80;;
13475;SDS011;6810;63.824;20.288;2024-02-14T06:30:41;1.60;;;0.90;;
13475;SDS011;6810;63.824;20.288;2024-02-14T06:33:28;2.17;;;1.10;;
13475;SDS011;6810;63.824;20.288;2024-02-14T06:36:15;1.60;;;1.10;;
13475;SDS011;6810;63.824;20.288;2024-02-14T06:39:02;1.97;;;0.90;;
13475;SDS011;6810;63.824;20.288;2024-02-14T06:41:49;2.33;;;0.80;;
13475;SDS011;6810;63.824;20.288;2024-02-14T06:44:36;4.57;;;1.07;;
13475;SDS011;6810;63.824;20.288;2024-02-14T06:47:23;2.53;;;1.10;;
13475;SDS011;6810;63.824;20.288;2024-02-14T06:50:10;1.57;;;1.07;;
13475;SDS011;6810;63.824;20.288;2024-02-14T06:52:57;3.13;;;1.07;;
13475;SDS011;6810;63.824;20.288;2024-02-14T06:55:44;1.37;;;0.77;;
13475;SDS011;6810;63.824;20.288;2024-02-14T06:58:30;2.63;;;1.40;;
13475;SDS011;6810;63.824;20.288;2024-02-14T07:01:17;1.43;;;1.10;;
13475;SDS011;6810;63.824;20.288;2024-02-14T07:04:05;2.40;;;0.90;;
13475;SDS011;6810;63.824;20.288;2024-02-14T07:06:54;1.50;;;0.97;;
13475;SDS011;6810;63.824;20.288;2024-02-14T07:09:41;1.33;;;0.83;;
13475;SDS011;6810;63.824;20.288;2024-02-14T07:12:30;3.03;;;1.00;;
13475;SDS011;6810;63.824;20.288;2024-02-14T07:15:17;1.83;;;0.90;;
13475;SDS011;6810;63.824;20.288;2024-02-14T07:18:04;1.33;;;0.90;;
13475;SDS011;6810;63.824;20.288;2024-02-14T07:20:51;3.47;;;1.40;;
13475;SDS011;6810;63.824;20.288;2024-02-14T07:23:38;2.17;;;0.93;;
13475;SDS011;6810;63.824;20.288;2024-02-14T07:26:25;1.93;;;1.40;;
13475;SDS011;6810;63.824;20.288;2024-02-14T07:29:12;4.40;;;1.40;;
13475;SDS011;6810;63.824;20.288;2024-02-14T07:32:01;2.77;;;1.00;;
13475;SDS011;6810;63.824;20.288;2024-02-14T07:34:49;3.03;;;1.30;;
13475;SDS011;6810;63.824;20.288;2024-02-14T07:37:36;1.77;;;0.87;;
13475;SDS011;6810;63.824;20.288;2024-02-14T07:40:23;2.73;;;1.17;;
13475;SDS011;6810;63.824;20.288;2024-02-14T07:43:18;3.83;;;1.00;;
13475;SDS011;6810;63.824;20.288;2024-02-14T07:46:04;2.83;;;1.00;;
13475;SDS011;6810;63.824;20.288;2024-02-14T07:48:51;1.27;;;0.93;;
13475;SDS011;6810;63.824;20.288;2024-02-14T07:51:38;1.50;;;0.97;;
13475;SDS011;6810;63.824;20.288;2024-02-14T07:54:25;3.00;;;1.17;;
13475;SDS011;6810;63.824;20.288;2024-02-14T07:57:12;2.73;;;1.30;;
13475;SDS011;6810;63.824;20.288;2024-02-14T07:59:59;3.50;;;1.10;;
13475;SDS011;6810;63.824;20.288;2024-02-14T08:02:46;2.33;;;1.43;;
13475;SDS011;6810;63.824;20.288;2024-02-14T08:05:33;2.37;;;1.10;;
13475;SDS011;6810;63.824;20.288;2024-02-14T08:08:20;3.80;;;1.27;;
13475;SDS011;6810;63.824;20.288;2024-02-14T08:11:07;3.73;;;1.27;;
13475;SDS011;6810;63.824;20.288;2024-02-14T08:13:54;1.60;;;1.10;;
13475;SDS011;6810;63.824;20.288;2024-02-14T08:16:41;1.77;;;1.00;;
13475;SDS011;6810;63.824;20.288;2024-02-14T08:19:27;1.33;;;1.07;;
13475;SDS011;6810;63.824;20.288;2024-02-14T08:22:15;2.90;;;1.10;;
13475;SDS011;6810;63.824;20.288;2024-02-14T08:25:02;1.43;;;0.97;;
13475;SDS011;6810;63.824;20.288;2024-02-14T08:27:48;1.87;;;0.90;;
13475;SDS011;6810;63.824;20.288;2024-02-14T08:30:35;1.20;;;0.87;;
13475;SDS011;6810;63.824;20.288;2024-02-14T08:33:22;2.27;;;1.40;;
13475;SDS011;6810;63.824;20.288;2024-02-14T08:36:09;2.03;;;1.20;;
13475;SDS011;6810;63.824;20.288;2024-02-14T08:38:57;1.67;;;1.30;;
13475;SDS011;6810;63.824;20.288;2024-02-14T08:41:44;2.03;;;1.20;;
13475;SDS011;6810;63.824;20.288;2024-02-14T08:44:31;2.67;;;1.30;;
13475;SDS011;6810;63.824;20.288;2024-02-14T08:47:18;1.47;;;1.10;;
13475;SDS011;6810;63.824;20.288;2024-02-14T08:50:05;3.47;;;1.30;;
13475;SDS011;6810;63.824;20.288;2024-02-14T08:52:52;2.90;;;1.27;;
13475;SDS011;6810;63.824;20.288;2024-02-14T08:55:39;2.43;;;1.20;;
13475;SDS011;6810;63.824;20.288;2024-02-14T08:58:27;1.93;;;1.23;;
13475;SDS011;6810;63.824;20.288;2024-02-14T09:01:14;1.30;;;1.00;;
13475;SDS011;6810;63.824;20.288;2024-02-14T09:04:01;2.87;;;1.17;;
13475;SDS011;6810;63.824;20.288;2024-02-14T09:06:47;3.53;;;1.37;;
13475;SDS011;6810;63.824;20.288;2024-02-14T09:09:34;3.30;;;1.50;;
13475;SDS011;6810;63.824;20.288;2024-02-14T09:12:21;2.83;;;1.30;;
13475;SDS011;6810;63.824;20.288;2024-02-14T09:15:08;2.73;;;1.30;;
13475;SDS011;6810;63.824;20.288;2024-02-14T09:17:55;3.83;;;1.30;;
13475;SDS011;6810;63.824;20.288;2024-02-14T09:20:42;1.87;;;1.20;;
13475;SDS011;6810;63.824;20.288;2024-02-14T09:23:29;4.23;;;1.60;;
13475;SDS011;6810;63.824;20.288;2024-02-14T09:26:16;2.63;;;1.40;;
13475;SDS011;6810;63.824;20.288;2024-02-14T09:29:03;1.63;;;1.20;;
13475;SDS011;6810;63.824;20.288;2024-02-14T09:31:50;2.90;;;1.30;;
13475;SDS011;6810;63.824;20.288;2024-02-14T09:34:37;3.13;;;1.10;;
13475;SDS011;6810;63.824;20.288;2024-02-14T09:37:24;1.90;;;1.10;;
13475;SDS011;6810;63.824;20.288;2024-02-14T09:40:11;2.30;;;1.20;;
13475;SDS011;6810;63.824;20.288;2024-02-14T09:42:58;2.37;;;1.40;;
13475;SDS011;6810;63.824;20.288;2024-02-14T09:45:50;1.97;;;0.93;;
13475;SDS011;6810;63.824;20.288;2024-02-14T09:48:38;3.53;;;1.53;;
13475;SDS011;6810;63.824;20.288;2024-02-14T09:51:25;2.53;;;1.30;;
13475;SDS011;6810;63.824;20.288;2024-02-14T09:54:12;3.30;;;1.40;;
13475;SDS011;6810;63.824;20.288;2024-02-14T09:56:59;2.87;;;1.57;;
13475;SDS011;6810;63.824;20.288;2024-02-14T09:59:46;3.13;;;1.43;;
13475;SDS011;6810;63.824;20.288;2024-02-14T10:02:35;3.37;;;1.47;;
13475;SDS011;6810;63.824;20.288;2024-02-14T10:05:22;4.07;;;1.20;;
13475;SDS011;6810;63.824;20.288;2024-02-14T10:08:09;1.43;;;1.30;;
13475;SDS011;6810;63.824;20.288;2024-02-14T10:10:57;2.33;;;1.33;;
13475;SDS011;6810;63.824;20.288;2024-02-14T10:13:44;2.23;;;1.20;;
13475;SDS011;6810;63.824;20.288;2024-02-14T10:16:31;2.83;;;1.30;;
13475;SDS011;6810;63.824;20.288;2024-02-14T10:19:18;2.03;;;1.27;;
13475;SDS011;6810;63.824;20.288;2024-02-14T10:22:05;4.60;;;1.60;;
13475;SDS011;6810;63.824;20.288;2024-02-14T10:24:52;3.47;;;1.97;;
13475;SDS011;6810;63.824;20.288;2024-02-14T10:27:39;2.57;;;1.40;;
13475;SDS011;6810;63.824;20.288;2024-02-14T10:30:26;2.33;;;1.47;;
13475;SDS011;6810;63.824;20.288;2024-02-14T10:33:13;3.00;;;1.57;;
13475;SDS011;6810;63.824;20.288;2024-02-14T10:36:01;1.33;;;1.00;;
13475;SDS011;6810;63.824;20.288;2024-02-14T10:38:49;4.97;;;1.80;;
13475;SDS011;6810;63.824;20.288;2024-02-14T10:41:37;3.63;;;1.60;;
13475;SDS011;6810;63.824;20.288;2024-02-14T10:44:24;2.40;;;1.30;;
13475;SDS011;6810;63.824;20.288;2024-02-14T10:47:11;4.23;;;1.43;;
13475;SDS011;6810;63.824;20.288;2024-02-14T10:50:05;4.03;;;1.53;;
13475;SDS011;6810;63.824;20.288;2024-02-14T10:52:53;3.80;;;1.70;;
13475;SDS011;6810;63.824;20.288;2024-02-14T10:55:48;3.37;;;1.60;;
13475;SDS011;6810;63.824;20.288;2024-02-14T10:58:35;2.97;;;1.57;;
13475;SDS011;6810;63.824;20.288;2024-02-14T11:01:23;2.53;;;1.57;;
13475;SDS011;6810;63.824;20.288;2024-02-14T11:04:11;3.33;;;1.70;;
13475;SDS011;6810;63.824;20.288;2024-02-14T11:06:58;3.47;;;1.40;;
13475;SDS011;6810;63.824;20.288;2024-02-14T11:09:45;2.37;;;1.47;;
13475;SDS011;6810;63.824;20.288;2024-02-14T11:12:33;3.80;;;1.70;;
13475;SDS011;6810;63.824;20.288;2024-02-14T11:15:21;3.03;;;1.83;;
13475;SDS011;6810;63.824;20.288;2024-02-14T11:18:09;2.10;;;1.37;;
13475;SDS011;6810;63.824;20.288;2024-02-14T11:20:57;3.03;;;1.57;;
13475;SDS011;6810;63.824;20.288;2024-02-14T11:23:53;3.07;;;1.67;;
13475;SDS011;6810;63.824;20.288;2024-02-14T11:26:46;3.83;;;1.50;;
13475;SDS011;6810;63.824;20.288;2024-02-14T11:29:39;2.57;;;1.43;;
13475;SDS011;6810;63.824;20.288;2024-02-14T11:32:29;2.57;;;1.57;;
13475;SDS011;6810;63.824;20.288;2024-02-14T11:35:16;2.73;;;1.73;;
13475;SDS011;6810;63.824;20.288;2024-02-14T11:38:03;3.27;;;1.60;;
13475;SDS011;6810;63.824;20.288;2024-02-14T11:40:50;3.60;;;1.70;;
13475;SDS011;6810;63.824;20.288;2024-02-14T11:43:37;2.10;;;1.43;;
13475;SDS011;6810;63.824;20.288;2024-02-14T11:46:24;2.47;;;1.73;;
13475;SDS011;6810;63.824;20.288;2024-02-14T11:49:11;2.53;;;1.73;;
13475;SDS011;6810;63.824;20.288;2024-02-14T11:51:58;2.93;;;1.60;;
13475;SDS011;6810;63.824;20.288;2024-02-14T11:54:48;2.27;;;1.50;;
13475;SDS011;6810;63.824;20.288;2024-02-14T11:57:38;2.70;;;1.60;;
13475;SDS011;6810;63.824;20.288;2024-02-14T12:00:25;3.80;;;2.00;;
13475;SDS011;6810;63.824;20.288;2024-02-14T12:03:12;5.33;;;1.67;;
13475;SDS011;6810;63.824;20.288;2024-02-14T12:06:01;2.97;;;1.70;;
13475;SDS011;6810;63.824;20.288;2024-02-14T12:08:49;2.87;;;1.53;;
13475;SDS011;6810;63.824;20.288;2024-02-14T12:11:40;2.00;;;1.50;;
13475;SDS011;6810;63.824;20.288;2024-02-14T12:14:28;4.67;;;1.50;;
13475;SDS011;6810;63.824;20.288;2024-02-14T12:17:16;2.93;;;1.77;;
13475;SDS011;6810;63.824;20.288;2024-02-14T12:20:09;2.93;;;1.53;;
13475;SDS011;6810;63.824;20.288;2024-02-14T12:23:00;3.13;;;1.60;;
13475;SDS011;6810;63.824;20.288;2024-02-14T12:25:47;3.43;;;2.00;;
13475;SDS011;6810;63.824;20.288;2024-02-14T12:28:34;2.67;;;1.70;;
13475;SDS011;6810;63.824;20.288;2024-02-14T12:31:22;2.63;;;1.77;;
13475;SDS011;6810;63.824;20.288;2024-02-14T12:34:10;3.27;;;1.73;;
13475;SDS011;6810;63.824;20.288;2024-02-14T12:36:58;2.70;;;1.80;;
13475;SDS011;6810;63.824;20.288;2024-02-14T12:39:45;2.73;;;1.50;;
13475;SDS011;6810;63.824;20.288;2024-02-14T12:42:32;4.07;;;1.60;;
13475;SDS011;6810;63.824;20.288;2024-02-14T12:45:19;2.80;;;1.63;;
13475;SDS011;6810;63.824;20.288;2024-02-14T12:48:06;2.90;;;1.83;;
13475;SDS011;6810;63.824;20.288;2024-02-14T12:50:54;3.37;;;1.80;;
13475;SDS011;6810;63.824;20.288;2024-02-14T12:53:43;3.37;;;1.73;;
13475;SDS011;6810;63.824;20.288;2024-02-14T12:56:31;2.97;;;1.70;;
13475;SDS011;6810;63.824;20.288;2024-02-14T12:59:18;3.17;;;1.80;;
13475;SDS011;6810;63.824;20.288;2024-02-14T13:02:05;3.23;;;2.10;;
13475;SDS011;6810;63.824;20.288;2024-02-14T13:04:51;4.50;;;2.00;;
13475;SDS011;6810;63.824;20.288;2024-02-14T13:07:38;3.17;;;1.93;;
13475;SDS011;6810;63.824;20.288;2024-02-14T13:10:26;3.30;;;1.73;;
13475;SDS011;6810;63.824;20.288;2024-02-14T13:13:12;3.00;;;1.87;;
13475;SDS011;6810;63.824;20.288;2024-02-14T13:15:59;4.77;;;1.87;;
13475;SDS011;6810;63.824;20.288;2024-02-14T13:18:47;3.50;;;1.73;;
13475;SDS011;6810;63.824;20.288;2024-02-14T13:21:34;3.03;;;1.73;;
13475;SDS011;6810;63.824;20.288;2024-02-14T13:24:21;2.80;;;1.87;;
13475;SDS011;6810;63.824;20.288;2024-02-14T13:27:08;3.40;;;1.97;;
13475;SDS011;6810;63.824;20.288;2024-02-14T13:29:55;2.93;;;1.87;;
13475;SDS011;6810;63.824;20.288;2024-02-14T13:32:41;4.30;;;1.87;;
13475;SDS011;6810;63.824;20.288;2024-02-14T13:35:28;4.03;;;2.07;;
13475;SDS011;6810;63.824;20.288;2024-02-14T13:38:15;4.20;;;1.93;;
13475;SDS011;6810;63.824;20.288;2024-02-14T13:41:04;4.50;;;2.43;;
13475;SDS011;6810;63.824;20.288;2024-02-14T13:43:51;5.07;;;2.20;;
13475;SDS011;6810;63.824;20.288;2024-02-14T13:46:38;4.43;;;1.93;;
13475;SDS011;6810;63.824;20.288;2024-02-14T13:49:30;4.50;;;2.43;;
13475;SDS011;6810;63.824;20.288;2024-02-14T13:52:17;4.33;;;2.10;;
13475;SDS011;6810;63.824;20.288;2024-02-14T13:55:04;3.07;;;2.10;;
13475;SDS011;6810;63.824;20.288;2024-02-14T13:57:51;4.17;;;2.27;;
13475;SDS011;6810;63.824;20.288;2024-02-14T14:00:38;3.97;;;2.07;;
13475;SDS011;6810;63.824;20.288;2024-02-14T14:03:25;3.10;;;1.80;;
13475;SDS011;6810;63.824;20.288;2024-02-14T14:06:12;3.70;;;2.30;;
13475;SDS011;6810;63.824;20.288;2024-02-14T14:08:59;3.60;;;1.90;;
13475;SDS011;6810;63.824;20.288;2024-02-14T14:11:46;4.40;;;2.17;;
13475;SDS011;6810;63.824;20.288;2024-02-14T14:14:34;3.63;;;1.80;;
13475;SDS011;6810;63.824;20.288;2024-02-14T14:17:21;4.63;;;2.20;;
13475;SDS011;6810;63.824;20.288;2024-02-14T14:20:08;5.23;;;2.30;;
13475;SDS011;6810;63.824;20.288;2024-02-14T14:22:56;6.33;;;2.20;;
13475;SDS011;6810;63.824;20.288;2024-02-14T14:25:43;5.87;;;2.30;;
13475;SDS011;6810;63.824;20.288;2024-02-14T14:28:30;3.93;;;2.23;;
13475;SDS011;6810;63.824;20.288;2024-02-14T14:31:17;5.57;;;2.30;;
13475;SDS011;6810;63.824;20.288;2024-02-14T14:34:03;3.40;;;2.03;;
13475;SDS011;6810;63.824;20.288;2024-02-14T14:36:50;4.40;;;2.20;;
13475;SDS011;6810;63.824;20.288;2024-02-14T14:39:37;5.27;;;2.20;;
13475;SDS011;6810;63.824;20.288;2024-02-14T14:42:24;4.00;;;2.17;;
13475;SDS011;6810;63.824;20.288;2024-02-14T14:45:11;3.53;;;2.30;;
13475;SDS011;6810;63.824;20.288;2024-02-14T14:47:58;4.77;;;2.10;;
13475;SDS011;6810;63.824;20.288;2024-02-14T14:50:45;5.10;;;2.37;;
13475;SDS011;6810;63.824;20.288;2024-02-14T14:53:32;3.00;;;2.03;;
13475;SDS011;6810;63.824;20.288;2024-02-14T14:56:19;4.47;;;2.43;;
13475;SDS011;6810;63.824;20.288;2024-02-14T14:59:06;4.63;;;2.27;;
13475;SDS011;6810;63.824;20.288;2024-02-14T15:01:53;4.67;;;2.10;;
13475;SDS011;6810;63.824;20.288;2024-02-14T15:04:40;6.87;;;2.47;;
13475;SDS011;6810;63.824;20.288;2024-02-14T15:07:27;5.40;;;2.53;;
13475;SDS011;6810;63.824;20.288;2024-02-14T15:10:14;6.50;;;2.97;;
13475;SDS011;6810;63.824;20.288;2024-02-14T15:13:00;4.57;;;2.83;;
13475;SDS011;6810;63.824;20.288;2024-02-14T15:15:47;3.97;;;2.43;;
13475;SDS011;6810;63.824;20.288;2024-02-14T15:18:34;5.13;;;2.43;;
13475;SDS011;6810;63.824;20.288;2024-02-14T15:21:21;5.97;;;2.93;;
13475;SDS011;6810;63.824;20.288;2024-02-14T15:24:08;4.43;;;2.03;;
13475;SDS011;6810;63.824;20.288;2024-02-14T15:26:55;8.33;;;2.77;;
13475;SDS011;6810;63.824;20.288;2024-02-14T16:03:55;5.53;;;2.63;;
13475;SDS011;6810;63.824;20.288;2024-02-14T16:06:22;3.23;;;1.83;;
13475;SDS011;6810;63.824;20.288;2024-02-14T16:09:09;5.70;;;2.20;;
13475;SDS011;6810;63.824;20.288;2024-02-14T16:11:56;4.17;;;2.30;;
13475;SDS011;6810;63.824;20.288;2024-02-14T16:14:43;5.57;;;2.50;;
13475;SDS011;6810;63.824;20.288;2024-02-14T16:17:30;5.60;;;2.57;;
13475;SDS011;6810;63.824;20.288;2024-02-14T16:20:18;6.63;;;2.40;;
13475;SDS011;6810;63.824;20.288;2024-02-14T16:23:05;5.60;;;2.67;;
13475;SDS011;6810;63.824;20.288;2024-02-14T16:25:54;6.00;;;2.57;;
13475;SDS011;6810;63.824;20.288;2024-02-14T16:28:41;4.87;;;2.47;;
13475;SDS011;6810;63.824;20.288;2024-02-14T16:31:28;4.87;;;2.50;;
13475;SDS011;6810;63.824;20.288;2024-02-14T16:34:15;6.60;;;2.60;;
13475;SDS011;6810;63.824;20.288;2024-02-14T16:37:02;4.57;;;2.20;;
13475;SDS011;6810;63.824;20.288;2024-02-14T16:39:49;5.00;;;2.47;;
13475;SDS011;6810;63.824;20.288;2024-02-14T16:42:36;4.37;;;2.53;;
13475;SDS011;6810;63.824;20.288;2024-02-14T16:45:23;7.03;;;2.67;;
13475;SDS011;6810;63.824;20.288;2024-02-14T16:48:10;6.67;;;2.80;;
13475;SDS011;6810;63.824;20.288;2024-02-14T16:50:57;5.70;;;2.83;;
13475;SDS011;6810;63.824;20.288;2024-02-14T16:53:44;7.93;;;2.63;;
13475;SDS011;6810;63.824;20.288;2024-02-14T16:56:31;8.33;;;2.93;;
13475;SDS011;6810;63.824;20.288;2024-02-14T16:59:18;4.43;;;2.50;;
13475;SDS011;6810;63.824;20.288;2024-02-14T17:02:05;9.03;;;3.10;;
13475;SDS011;6810;63.824;20.288;2024-02-14T17:04:52;4.80;;;3.00;;
13475;SDS011;6810;63.824;20.288;2024-02-14T17:07:40;6.23;;;2.93;;
13475;SDS011;6810;63.824;20.288;2024-02-14T17:10:26;9.03;;;3.17;;
13475;SDS011;6810;63.824;20.288;2024-02-14T17:13:13;9.23;;;3.23;;
13475;SDS011;6810;63.824;20.288;2024-02-14T17:16:00;6.57;;;2.80;;
13475;SDS011;6810;63.824;20.288;2024-02-14T17:18:47;7.07;;;3.23;;
13475;SDS011;6810;63.824;20.288;2024-02-14T17:21:34;10.37;;;3.10;;
13475;SDS011;6810;63.824;20.288;2024-02-14T17:24:21;5.00;;;3.00;;
13475;SDS011;6810;63.824;20.288;2024-02-14T17:27:09;4.63;;;2.73;;